Map

Track Data

SID SEASON NUMBER BASIN SUBBASIN NAME ISO_TIME NATURE LAT LON WMO_WIND WMO_PRES WMO_AGENCY TRACK_TYPE DIST2LAND LANDFALL IFLAG USA_AGENCY USA_ATCF_ID USA_LAT USA_LON USA_RECORD USA_STATUS USA_WIND USA_PRES USA_SSHS USA_R34_NE USA_R34_SE USA_R34_SW USA_R34_NW USA_R50_NE USA_R50_SE USA_R50_SW USA_R50_NW USA_R64_NE USA_R64_SE USA_R64_SW USA_R64_NW USA_POCI USA_ROCI USA_RMW USA_EYE TOKYO_LAT TOKYO_LON TOKYO_GRADE TOKYO_WIND TOKYO_PRES TOKYO_R50_DIR TOKYO_R50_LONG TOKYO_R50_SHORT TOKYO_R30_DIR TOKYO_R30_LONG TOKYO_R30_SHORT TOKYO_LAND CMA_LAT CMA_LON CMA_CAT CMA_WIND CMA_PRES HKO_LAT HKO_LON HKO_CAT HKO_WIND HKO_PRES NEWDELHI_LAT NEWDELHI_LON NEWDELHI_GRADE NEWDELHI_WIND NEWDELHI_PRES NEWDELHI_CI NEWDELHI_DP NEWDELHI_POCI REUNION_LAT REUNION_LON REUNION_TYPE REUNION_WIND REUNION_PRES REUNION_TNUM REUNION_CI REUNION_RMW REUNION_R34_NE REUNION_R34_SE REUNION_R34_SW REUNION_R34_NW REUNION_R50_NE REUNION_R50_SE REUNION_R50_SW REUNION_R50_NW REUNION_R64_NE REUNION_R64_SE REUNION_R64_SW REUNION_R64_NW BOM_LAT BOM_LON BOM_TYPE BOM_WIND BOM_PRES BOM_TNUM BOM_CI BOM_RMW BOM_R34_NE BOM_R34_SE BOM_R34_SW BOM_R34_NW BOM_R50_NE BOM_R50_SE BOM_R50_SW BOM_R50_NW BOM_R64_NE BOM_R64_SE BOM_R64_SW BOM_R64_NW BOM_ROCI BOM_POCI BOM_EYE BOM_POS_METHOD BOM_PRES_METHOD NADI_LAT NADI_LON NADI_CAT NADI_WIND NADI_PRES WELLINGTON_LAT WELLINGTON_LON WELLINGTON_WIND WELLINGTON_PRES DS824_LAT DS824_LON DS824_STAGE DS824_WIND DS824_PRES TD9636_LAT TD9636_LON TD9636_STAGE TD9636_WIND TD9636_PRES TD9635_LAT TD9635_LON TD9635_WIND TD9635_PRES TD9635_ROCI NEUMANN_LAT NEUMANN_LON NEUMANN_CLASS NEUMANN_WIND NEUMANN_PRES MLC_LAT MLC_LON MLC_CLASS MLC_WIND MLC_PRES USA_GUST BOM_GUST BOM_GUST_PER REUNION_GUST REUNION_GUST_PER USA_SEAHGT USA_SEARAD_NE USA_SEARAD_SE USA_SEARAD_SW USA_SEARAD_NW STORM_SPEED STORM_DIR
1897269N12307 1897 33 NA NA NOT_NAMED 1897-09-25 12:00:00 TS 12.2000 -53.5000 main 709 707 _____________O -1 12.2000 -53.5000 TS 35 14 278
1897269N12307 1897 33 NA NA NOT_NAMED 1897-09-25 15:00:00 TS 12.3004 -54.1999 main 712 666 _____________P -1 12.3004 -54.1999 TS 35 14 278
1897269N12307 1897 33 NA NA NOT_NAMED 1897-09-25 18:00:00 TS 12.4000 -54.9000 main 666 622 _____________O -1 12.4000 -54.9000 TS 35 14 278
1897269N12307 1897 33 NA NA NOT_NAMED 1897-09-25 21:00:00 TS 12.4998 -55.6001 main 622 554 _____________P -1 12.4998 -55.6001 TS 35 14 278
1897269N12307 1897 33 NA NA NOT_NAMED 1897-09-26 00:00:00 TS 12.6000 -56.3000 main 554 490 _____________O -1 12.6000 -56.3000 TS 35 14 279
1897269N12307 1897 33 NA NA NOT_NAMED 1897-09-26 03:00:00 TS 12.7074 -57.0075 main 490 429 _____________P -1 12.7074 -57.0075 TS 35 14 278
1897269N12307 1897 33 NA NA NOT_NAMED 1897-09-26 06:00:00 TS 12.8000 -57.7000 main 429 376 _____________O -1 12.8000 -57.7000 TS 35 13 274
1897269N12307 1897 33 NA NA NOT_NAMED 1897-09-26 09:00:00 TS 12.8048 -58.3580 main 368 328 _____________P -1 12.8048 -58.3580 TS 35 13 275
1897269N12307 1897 33 NA NA NOT_NAMED 1897-09-26 12:00:00 TS 12.9000 -59.0000 main 328 314 _____________O -1 12.9000 -59.0000 TS 35 13 289
1897269N12307 1897 33 NA CS NOT_NAMED 1897-09-26 15:00:00 TS 13.2473 -59.6498 main 318 318 _____________P -1 13.2473 -59.6498 TS 35 15 302
1897269N12307 1897 33 NA CS NOT_NAMED 1897-09-26 18:00:00 TS 13.7000 -60.3000 main 344 342 _____________O -1 13.7000 -60.3000 TS 35 15 304
1897269N12307 1897 33 NA CS NOT_NAMED 1897-09-26 21:00:00 TS 14.0998 -60.9502 main 380 380 _____________P -1 14.0998 -60.9502 TS 35 15 302
1897269N12307 1897 33 NA CS NOT_NAMED 1897-09-27 00:00:00 TS 14.5000 -61.6000 main 425 425 _____________O -1 14.5000 -61.6000 TS 35 15 303
1897269N12307 1897 33 NA CS NOT_NAMED 1897-09-27 03:00:00 TS 14.9073 -62.2502 main 470 432 _____________P -1 14.9073 -62.2502 TS 35 15 302
1897269N12307 1897 33 NA CS NOT_NAMED 1897-09-27 06:00:00 TS 15.3000 -62.9000 main 432 356 _____________O -1 15.3000 -62.9000 TS 35 15 300
1897269N12307 1897 33 NA CS NOT_NAMED 1897-09-27 09:00:00 TS 15.6502 -63.6100 main 347 281 _____________P -1 15.6502 -63.6100 TS 35 14 299
1897269N12307 1897 33 NA CS NOT_NAMED 1897-09-27 12:00:00 TS 16.0000 -64.2000 main 281 226 _____________O -1 16.0000 -64.2000 TS 35 11 311
1897269N12307 1897 33 NA CS NOT_NAMED 1897-09-27 15:00:00 TS 16.3996 -64.5104 main 226 177 _____________P -1 16.3996 -64.5104 TS 32 9 329
1897269N12307 1897 33 NA CS NOT_NAMED 1897-09-27 18:00:00 TS 16.8000 -64.7000 main 177 138 _____________O -1 16.8000 -64.7000 TD 30 9 331
1897269N12307 1897 33 NA CS NOT_NAMED 1897-09-27 21:00:00 TS 17.1500 -64.9501 main 131 84 _____________P -1 17.1500 -64.9501 TD 30 9 326
1897269N12307 1897 33 NA CS NOT_NAMED 1897-09-28 00:00:00 TS 17.5000 -65.2000 main 84 39 _____________O -1 17.5000 -65.2000 TD 30 9 328
1897269N12307 1897 33 NA CS NOT_NAMED 1897-09-28 03:00:00 TS 17.9000 -65.4500 main 33 0 _____________P -1 17.9000 -65.4500 TD 30 9 329
1897269N12307 1897 33 NA CS NOT_NAMED 1897-09-28 06:00:00 TS 18.3000 -65.7000 main 0 0 _____________O -1 18.3000 -65.7000 TD 30 9 329
1897269N12307 1897 33 NA NA NOT_NAMED 1897-09-28 09:00:00 TS 18.6724 -65.9351 main 33 33 _____________P -1 18.6724 -65.9351 TD 30 8 326
1897269N12307 1897 33 NA NA NOT_NAMED 1897-09-28 12:00:00 TS 19.0000 -66.2000 main 67 67 _____________O -1 19.0000 -66.2000 TD 30 8 316
1897269N12307 1897 33 NA NA NOT_NAMED 1897-09-28 15:00:00 TS 19.2650 -66.5426 main 100 100 _____________P -1 19.2651 -66.5426 TD 30 8 307
1897269N12307 1897 33 NA NA NOT_NAMED 1897-09-28 18:00:00 TS 19.5000 -66.9000 main 123 123 _____________O -1 19.5000 -66.9000 TD 30 8 308
1897269N12307 1897 33 NA NA NOT_NAMED 1897-09-28 21:00:00 TS 19.7499 -67.2002 main 145 145 _____________P -1 19.7499 -67.2002 TD 30 8 311
1897269N12307 1897 33 NA NA NOT_NAMED 1897-09-29 00:00:00 TS 20.0000 -67.5000 main 176 170 _____________O -1 20.0000 -67.5000 TD 30 8 309
1897269N12307 1897 33 NA NA NOT_NAMED 1897-09-29 03:00:00 TS 20.2500 -67.8500 main 182 175 _____________P -1 20.2500 -67.8500 TD 30 8 307
1897269N12307 1897 33 NA NA NOT_NAMED 1897-09-29 06:00:00 TS 20.5000 -68.2000 main 176 170 _____________O -1 20.5000 -68.2000 TD 30 8 308
1897269N12307 1897 33 NA NA NOT_NAMED 1897-09-29 09:00:00 TS 20.7500 -68.5226 main 177 177 _____________P -1 20.7500 -68.5226 TD 30 8 312
1897269N12307 1897 33 NA NA NOT_NAMED 1897-09-29 12:00:00 TS 21.0000 -68.8000 main 197 197 _____________O -1 21.0000 -68.8000 TD 30 7 318
1897269N12307 1897 33 NA NA NOT_NAMED 1897-09-29 15:00:00 TS 21.2574 -69.0151 main 216 211 _____________P -1 21.2574 -69.0151 TD 30 6 323
1897269N12307 1897 33 NA NA NOT_NAMED 1897-09-29 18:00:00 TS 21.5000 -69.2000 main 228 228 _____________O -1 21.5000 -69.2000 TD 30 6 322
1897269N12307 1897 33 NA NA NOT_NAMED 1897-09-29 21:00:00 TS 21.6999 -69.3927 main 243 243 _____________P -1 21.6999 -69.3927 TD 30 5 317
1897269N12307 1897 33 NA NA NOT_NAMED 1897-09-30 00:00:00 TS 21.9000 -69.6000 main 256 256 _____________O -1 21.9000 -69.6000 TD 30 6 317
1897269N12307 1897 33 NA NA NOT_NAMED 1897-09-30 03:00:00 TS 22.1500 -69.8499 main 280 278 _____________P -1 22.1500 -69.8499 TD 30 7 317
1897269N12307 1897 33 NA NA NOT_NAMED 1897-09-30 06:00:00 TS 22.4000 -70.1000 main 295 293 _____________O -1 22.4000 -70.1000 TD 30 6 316
1897269N12307 1897 33 NA NA NOT_NAMED 1897-09-30 09:00:00 TS 22.5925 -70.3151 main 314 307 _____________P -1 22.5925 -70.3151 TD 30 5 317
1897269N12307 1897 33 NA NA NOT_NAMED 1897-09-30 12:00:00 TS 22.8000 -70.5000 main 313 311 _____________O -1 22.8000 -70.5000 TD 30 6 327
1897269N12307 1897 33 NA NA NOT_NAMED 1897-09-30 15:00:00 TS 23.0925 -70.6650 main 318 318 _____________P -1 23.0925 -70.6650 TD 30 7 335
1897269N12307 1897 33 NA NA NOT_NAMED 1897-09-30 18:00:00 TS 23.4000 -70.8000 main 334 334 _____________O -1 23.4000 -70.8000 TD 30 6 339
1897269N12307 1897 33 NA NA NOT_NAMED 1897-09-30 21:00:00 TS 23.6500 -70.9002 main 344 344 _____________P -1 23.6500 -70.9002 TD 30 5 340
1897269N12307 1897 33 NA NA NOT_NAMED 1897-10-01 00:00:00 TS 23.9000 -71.0000 main 365 365 _____________O -1 23.9000 -71.0000 TD 30 6 338
1897269N12307 1897 33 NA NA NOT_NAMED 1897-10-01 03:00:00 TS 24.2000 -71.1499 main 387 382 _____________P -1 24.2000 -71.1499 TD 30 7 335
1897269N12307 1897 33 NA NA NOT_NAMED 1897-10-01 06:00:00 TS 24.5000 -71.3000 main 407 407 _____________O -1 24.5000 -71.3000 TD 30 6 336
1897269N12307 1897 33 NA NA NOT_NAMED 1897-10-01 09:00:00 TS 24.7500 -71.4225 main 424 424 _____________P -1 24.7500 -71.4225 TD 30 5 340
1897269N12307 1897 33 NA NA NOT_NAMED 1897-10-01 12:00:00 TS 25.0000 -71.5000 main 451 451 _____________O -1 25.0000 -71.5000 TD 30 6 352
1897269N12307 1897 33 NA NA NOT_NAMED 1897-10-01 15:00:00 TS 25.3000 -71.5151 main 483 483 _____________P -1 25.3000 -71.5151 TD 32 6 1
1897269N12307 1897 33 NA NA NOT_NAMED 1897-10-01 18:00:00 TS 25.6000 -71.5000 main 515 515 _____________O -1 25.6000 -71.5000 TS 35 6 0
1897269N12307 1897 33 NA NA NOT_NAMED 1897-10-01 21:00:00 TS 25.8500 -71.5074 main 547 536 _____________P -1 25.8500 -71.5074 TS 35 5 2
1897269N12307 1897 33 NA NA NOT_NAMED 1897-10-02 00:00:00 TS 26.1000 -71.5000 main 568 568 _____________O -1 26.1000 -71.5000 TS 35 6 4
1897269N12307 1897 33 NA NA NOT_NAMED 1897-10-02 03:00:00 TS 26.4000 -71.4650 main 600 600 _____________P -1 26.4000 -71.4650 TS 37 6 8
1897269N12307 1897 33 NA NA NOT_NAMED 1897-10-02 06:00:00 TS 26.7000 -71.4000 main 635 635 _____________O -1 26.7000 -71.4000 TS 40 6 11
1897269N12307 1897 33 NA NA NOT_NAMED 1897-10-02 09:00:00 TS 26.9499 -71.3447 main 659 659 _____________P -1 26.9499 -71.3447 TS 40 5 20
1897269N12307 1897 33 NA NA NOT_NAMED 1897-10-02 12:00:00 TS 27.2000 -71.2000 main 694 694 _____________O -1 27.2000 -71.2000 TS 40 7 37
1897269N12307 1897 33 NA NA NOT_NAMED 1897-10-02 15:00:00 TS 27.4927 -70.8802 main 735 735 _____________P -1 27.4927 -70.8802 TS 40 9 46
1897269N12307 1897 33 NA NA NOT_NAMED 1897-10-02 18:00:00 TS 27.8000 -70.5000 main 779 779 _____________O -1 27.8000 -70.5000 TS 40 9 45
1897269N12307 1897 33 NA NA NOT_NAMED 1897-10-02 21:00:00 TS 28.0999 -70.1923 main 821 821 _____________P -1 28.0999 -70.1923 TS 40 8 41
1897269N12307 1897 33 NA NA NOT_NAMED 1897-10-03 00:00:00 TS 28.4000 -69.9000 main 863 863 _____________O -1 28.4000 -69.9000 TS 40 8 41
1897269N12307 1897 33 NA NA NOT_NAMED 1897-10-03 03:00:00 TS 28.7074 -69.5999 main 905 905 _____________P -1 28.7074 -69.5999 TS 40 8 41
1897269N12307 1897 33 NA NA NOT_NAMED 1897-10-03 06:00:00 TS 29.0000 -69.3000 main 929 927 _____________O -1 29.0000 -69.3000 TS 40 8 43
1897269N12307 1897 33 NA NA NOT_NAMED 1897-10-03 09:00:00 TS 29.2649 -68.9999 main 927 926 _____________P -1 29.2649 -68.9999 TS 40 7 46
1897269N12307 1897 33 NA NA NOT_NAMED 1897-10-03 12:00:00 TS 29.5000 -68.7000 main 933 933 _____________O -1 29.5000 -68.7000 TS 40 7 50
1897269N12307 1897 33 NA NA NOT_NAMED 1897-10-03 15:00:00 TS 29.7150 -68.3924 main 940 940 _____________P -1 29.7150 -68.3924 TS 40 7 52
1897269N12307 1897 33 NA NA NOT_NAMED 1897-10-03 18:00:00 TS 29.9000 -68.1000 main 948 948 _____________O -1 29.9000 -68.1000 TS 40 6 55
1897269N12307 1897 33 NA NA NOT_NAMED 1897-10-03 21:00:00 TS 30.0499 -67.8497 main 965 957 _____________P -1 30.0499 -67.8497 TS 40 5 55
1897269N12307 1897 33 NA NA NOT_NAMED 1897-10-04 00:00:00 TS 30.2000 -67.6000 main 964 963 _____________O -1 30.2000 -67.6000 TS 40 6 54
1897269N12307 1897 33 NA NA NOT_NAMED 1897-10-04 03:00:00 TS 30.4000 -67.3001 main 970 970 _____________P -1 30.4000 -67.3001 TS 40 7 52
1897269N12307 1897 33 NA NA NOT_NAMED 1897-10-04 06:00:00 TS 30.6000 -67.0000 main 978 978 _____________O -1 30.6000 -67.0000 TS 40 6 54
1897269N12307 1897 33 NA NA NOT_NAMED 1897-10-04 09:00:00 TS 30.7499 -66.7497 main 994 987 _____________P -1 30.7499 -66.7497 TS 40 5 55
1897269N12307 1897 33 NA NA NOT_NAMED 1897-10-04 12:00:00 TS 30.9000 -66.5000 main 996 996 _____________O -1 30.9000 -66.5000 TS 40 6 53
1897269N12307 1897 33 NA NA NOT_NAMED 1897-10-04 15:00:00 TS 31.1000 -66.2001 main 1007 1007 _____________P -1 31.1000 -66.2001 TS 40 7 52
1897269N12307 1897 33 NA NA NOT_NAMED 1897-10-04 18:00:00 TS 31.3000 -65.9000 main 1019 1019 _____________O -1 31.3000 -65.9000 TS 40 6 53
1897269N12307 1897 33 NA NA NOT_NAMED 1897-10-04 21:00:00 TS 31.4499 -65.6497 main 1037 1031 _____________P -1 31.4499 -65.6497 TS 40 5 55
1897269N12307 1897 33 NA NA NOT_NAMED 1897-10-05 00:00:00 TS 31.6000 -65.4000 main 1042 1042 _____________O -1 31.6000 -65.4000 TS 40 6 53
1897269N12307 1897 33 NA NA NOT_NAMED 1897-10-05 03:00:00 TS 31.8000 -65.1001 main 1056 1056 _____________P -1 31.8000 -65.1001 TS 40 6 52
1897269N12307 1897 33 NA NA NOT_NAMED 1897-10-05 06:00:00 TS 32.0000 -64.8000 main 1071 1071 _____________O -1 32.0000 -64.8000 TS 40 5 54
1897269N12307 1897 33 NA NA NOT_NAMED 1897-10-05 09:00:00 TS 32.1043 -64.6085 main 1084 1084 _____________P -1 32.1043 -64.6085 TS 37 5 55
1897269N12307 1897 33 NA NA NOT_NAMED 1897-10-05 12:00:00 TS 32.3000 -64.3000 main 1100 1100 _____________O -1 32.3000 -64.3000 TS 35 10 51
1897269N12307 1897 33 NA NA NOT_NAMED 1897-10-05 15:00:00 TS 32.7480 -63.6684 main 1135 1123 _____________P -1 32.7480 -63.6684 TS 35 15 50
1897269N12307 1897 33 NA NA NOT_NAMED 1897-10-05 18:00:00 ET 33.3000 -62.9000 main 1123 1111 _____________O -1 33.3000 -62.9000 EX 35 16 49
1897269N12307 1897 33 NA NA NOT_NAMED 1897-10-05 21:00:00 ET 33.7996 -62.1992 main 1112 1075 _____________P -1 33.7996 -62.1992 EX 32 15 49
1897269N12307 1897 33 NA NA NOT_NAMED 1897-10-06 00:00:00 ET 34.3000 -61.5000 main 1075 1042 _____________O -1 34.3000 -61.5000 EX 30 15 49
1897269N12307 1897 33 NA NA NOT_NAMED 1897-10-06 03:00:00 ET 34.7996 -60.7992 main 1042 1015 _____________P -1 34.7996 -60.7992 EX 30 15 49
1897269N12307 1897 33 NA NA NOT_NAMED 1897-10-06 06:00:00 ET 35.3000 -60.1000 main 1015 998 _____________O -1 35.3000 -60.1000 EX 30 15 50
1897269N12307 1897 33 NA NA NOT_NAMED 1897-10-06 09:00:00 ET 35.7464 -59.4341 main 1003 977 _____________P -1 35.7464 -59.4341 EX 30 15 49
1897269N12307 1897 33 NA NA NOT_NAMED 1897-10-06 12:00:00 ET 36.3000 -58.7000 main 977 945 _____________O -1 36.3000 -58.7000 EX 30 19 44
1897269N12307 1897 33 NA NA NOT_NAMED 1897-10-06 15:00:00 ET 37.0975 -57.7953 main 942 872 _____________P -1 37.0975 -57.7953 EX 30 23 42
1897269N12307 1897 33 NA NA NOT_NAMED 1897-10-06 18:00:00 ET 38.0000 -56.8000 main 876 830 _____________O -1 38.0000 -56.8000 EX 30 24 42
1897269N12307 1897 33 NA NA NOT_NAMED 1897-10-06 21:00:00 ET 38.8495 -55.7982 main 834 774 _____________P -1 38.8495 -55.7982 EX 30 23 42
1897269N12307 1897 33 NA NA NOT_NAMED 1897-10-07 00:00:00 ET 39.7000 -54.8000 main 773 678 _____________O -1 39.7000 -54.8000 EX 30 23 41
1897269N12307 1897 33 NA NA NOT_NAMED 1897-10-07 03:00:00 ET 40.5565 -53.8402 main 667 578 _____________P -1 40.5565 -53.8402 EX 30 22 40
1897269N12307 1897 33 NA NA NOT_NAMED 1897-10-07 06:00:00 ET 41.4000 -52.9000 main 578 498 _____________O -1 41.4000 -52.9000 EX 30 22 40
1897269N12307 1897 33 NA NA NOT_NAMED 1897-10-07 09:00:00 ET 42.2116 -51.9572 main 498 432 _____________P -1 42.2116 -51.9572 EX 30 21 41
1897269N12307 1897 33 NA NA NOT_NAMED 1897-10-07 12:00:00 ET 43.0000 -51.0000 main 435 _____________O -1 43.0000 -51.0000 EX 30 21 42

About IBTrACS Database

This database is a web-friendly format of International Best Track Archive for Climate Stewardship (IBTrACS), a global best track data archive curated by NOAA dating back to 1842.

Updated: 2021-10-08